Time;durP1;ratioP1;P1;durP2;ratioP2;P2;SDS_P1;SDS_P2;PMS_P1;PMS_P2;Temp;Humidity;BMP_temperature;BMP_pressure;BME280_temperature;BME280_humidity;BME280_pressure;Samples;Min_cycle;Max_cycle;Signal;HPM_P1;HPM_P2
2021/09/03 00:03:00;;;;;;;2.13;1.70;;;23.40;57.40;;;;;;6241056;28;20087;-73
2021/09/03 00:06:00;;;;;;;1.83;1.27;;;23.50;57.60;;;;;;6241147;28;20033;-73
2021/09/03 00:09:01;;;;;;;1.60;1.40;;;23.50;57.60;;;;;;6239785;28;20037;-73
2021/09/03 00:12:02;;;;;;;1.25;1.15;;;23.50;57.50;;;;;;6239531;28;20037;-73
2021/09/03 00:15:05;;;;;;;2.30;1.70;;;23.50;57.60;;;;;;6231968;28;20463;-73
2021/09/03 00:18:06;;;;;;;1.80;1.50;;;23.40;57.40;;;;;;6227888;28;20383;-73
2021/09/03 00:21:06;;;;;;;1.30;1.20;;;23.40;57.40;;;;;;6240811;28;20029;-74
2021/09/03 00:24:07;;;;;;;1.88;1.50;;;23.40;57.40;;;;;;6241140;28;20095;-73
2021/09/03 00:27:07;;;;;;;1.50;1.30;;;23.40;57.40;;;;;;6239741;28;20026;-73
2021/09/03 00:30:09;;;;;;;1.98;1.48;;;23.50;57.50;;;;;;6245117;28;20068;-73
2021/09/03 00:33:09;;;;;;;1.58;1.10;;;23.40;57.40;;;;;;6243744;28;20021;-73
2021/09/03 00:36:10;;;;;;;1.73;1.33;;;23.40;57.50;;;;;;6245663;28;20068;-74
2021/09/03 00:39:11;;;;;;;1.90;1.20;;;23.40;57.40;;;;;;6244919;28;20475;-74
2021/09/03 00:42:14;;;;;;;2.67;1.63;;;23.40;57.50;;;;;;6244998;28;20491;-74
2021/09/03 00:45:14;;;;;;;1.77;1.40;;;23.50;57.50;;;;;;6243866;28;20025;-73
2021/09/03 00:48:15;;;;;;;1.33;1.23;;;23.40;57.40;;;;;;6244914;28;20096;-74
2021/09/03 00:51:16;;;;;;;1.80;1.27;;;23.50;57.50;;;;;;6244844;28;20021;-73
2021/09/03 00:54:16;;;;;;;1.75;1.42;;;23.50;57.50;;;;;;6244978;28;20018;-72
2021/09/03 00:57:17;;;;;;;1.75;1.30;;;23.40;57.40;;;;;;6246890;28;20269;-74
2021/09/03 01:00:18;;;;;;;1.58;1.20;;;23.40;57.40;;;;;;6244944;28;20033;-73
2021/09/03 01:03:19;;;;;;;1.70;1.30;;;23.40;57.30;;;;;;6244586;28;20581;-75
2021/09/03 01:06:20;;;;;;;1.80;1.27;;;23.40;57.40;;;;;;6243210;28;20032;-73
2021/09/03 01:09:20;;;;;;;2.20;1.45;;;23.40;57.40;;;;;;6243115;28;20017;-73
2021/09/03 01:12:21;;;;;;;1.38;1.20;;;23.40;57.40;;;;;;6243218;28;20109;-73
2021/09/03 01:15:22;;;;;;;1.75;1.40;;;23.40;57.40;;;;;;6243056;28;20029;-73
2021/09/03 01:18:23;;;;;;;1.52;1.10;;;23.40;57.40;;;;;;6243655;28;20033;-73
2021/09/03 01:21:24;;;;;;;1.65;1.17;;;23.50;57.50;;;;;;6244244;28;20017;-73
2021/09/03 01:24:25;;;;;;;1.48;1.23;;;23.40;57.40;;;;;;6244124;28;20065;-73
2021/09/03 01:27:25;;;;;;;1.25;1.13;;;23.40;57.40;;;;;;6244837;28;20069;-73
2021/09/03 01:30:26;;;;;;;1.52;1.10;;;23.40;57.30;;;;;;6234190;28;20116;-73
2021/09/03 01:33:27;;;;;;;1.35;1.25;;;23.40;57.40;;;;;;6219292;28;20030;-73
2021/09/03 01:36:31;;;;;;;1.75;1.40;;;23.40;57.40;;;;;;6243310;28;20036;-74
2021/09/03 01:39:31;;;;;;;1.90;1.33;;;23.40;57.40;;;;;;6242946;28;20026;-73
2021/09/03 01:42:32;;;;;;;1.30;1.10;;;23.40;58.20;;;;;;6243481;28;20029;-74
2021/09/03 01:45:33;;;;;;;1.83;1.50;;;23.40;57.40;;;;;;6243748;28;20053;-73
2021/09/03 01:48:33;;;;;;;2.20;1.42;;;23.50;57.50;;;;;;6243650;28;20096;-73
2021/09/03 01:51:34;;;;;;;1.80;1.50;;;23.40;57.50;;;;;;6242117;28;20030;-73
2021/09/03 01:54:34;;;;;;;1.50;1.27;;;23.40;57.40;;;;;;6243446;28;20025;-74
2021/09/03 01:57:35;;;;;;;1.65;1.25;;;23.40;57.40;;;;;;6243394;28;20053;-73
2021/09/03 02:00:35;;;;;;;1.60;1.30;;;23.50;57.50;;;;;;6243116;28;20033;-73
2021/09/03 02:03:36;;;;;;;1.83;1.38;;;23.40;57.40;;;;;;6243540;28;20104;-73
2021/09/03 02:06:37;;;;;;;1.38;1.10;;;23.40;57.30;;;;;;6233533;28;20038;-73
2021/09/03 02:09:37;;;;;;;1.67;1.40;;;23.40;57.30;;;;;;6222307;28;20102;-73
2021/09/03 02:12:38;;;;;;;1.05;0.95;;;23.40;57.30;;;;;;6241881;28;20109;-73
2021/09/03 02:15:38;;;;;;;1.65;1.40;;;23.40;57.40;;;;;;6230610;28;20121;-73
2021/09/03 02:18:39;;;;;;;1.77;1.30;;;23.40;57.40;;;;;;6217021;28;20018;-73
2021/09/03 02:21:41;;;;;;;1.38;1.27;;;23.40;57.40;;;;;;6236484;28;20034;-73
2021/09/03 02:24:41;;;;;;;1.75;1.27;;;23.40;57.30;;;;;;6242453;28;20134;-73
2021/09/03 02:27:42;;;;;;;1.55;1.25;;;23.40;57.40;;;;;;6241703;28;20458;-73
2021/09/03 02:30:43;;;;;;;1.80;1.42;;;23.40;57.40;;;;;;6240818;28;20030;-74
2021/09/03 02:33:44;;;;;;;1.75;1.42;;;23.40;57.30;;;;;;6242779;28;20052;-73
2021/09/03 02:36:45;;;;;;;2.22;1.75;;;23.40;57.40;;;;;;6242551;28;20037;-74
2021/09/03 02:39:46;;;;;;;1.20;1.10;;;23.40;57.40;;;;;;6242201;28;20032;-74
2021/09/03 02:42:46;;;;;;;1.48;1.20;;;23.40;57.30;;;;;;6241624;28;20033;-73
2021/09/03 02:45:47;;;;;;;1.40;1.05;;;23.40;57.30;;;;;;6242225;28;20037;-73
2021/09/03 02:48:47;;;;;;;1.30;1.10;;;23.40;57.30;;;;;;6242090;28;20112;-74
2021/09/03 02:51:48;;;;;;;1.33;1.15;;;23.40;57.30;;;;;;6232828;28;20030;-73
2021/09/03 02:54:48;;;;;;;1.33;1.20;;;23.40;57.30;;;;;;6217704;28;20026;-73
2021/09/03 02:57:49;;;;;;;1.67;1.35;;;23.40;57.40;;;;;;6252869;28;20088;-73
2021/09/03 03:00:50;;;;;;;1.73;1.30;;;23.40;57.30;;;;;;6241627;28;20026;-73
2021/09/03 03:03:50;;;;;;;1.30;1.20;;;23.40;57.30;;;;;;6242200;28;20022;-73
2021/09/03 03:06:51;;;;;;;1.20;1.10;;;23.40;57.40;;;;;;6241260;28;20028;-73
2021/09/03 03:09:51;;;;;;;1.30;1.02;;;23.40;57.30;;;;;;6245284;28;20068;-73
2021/09/03 03:12:54;;;;;;;1.42;1.23;;;23.40;57.40;;;;;;6244077;28;20018;-73
2021/09/03 03:15:55;;;;;;;1.80;1.33;;;23.40;57.30;;;;;;6230460;28;20049;-73
2021/09/03 03:18:55;;;;;;;1.30;1.05;;;23.40;57.30;;;;;;6251592;28;20026;-74
2021/09/03 03:21:57;;;;;;;1.20;1.10;;;23.40;57.30;;;;;;6252096;28;20056;-73
2021/09/03 03:24:57;;;;;;;1.60;1.30;;;23.40;57.30;;;;;;6250519;28;20089;-73
2021/09/03 03:27:58;;;;;;;1.10;1.00;;;23.40;57.30;;;;;;6252882;28;20081;-73
2021/09/03 03:30:59;;;;;;;1.73;1.30;;;23.40;57.30;;;;;;6254146;28;20021;-73
2021/09/03 03:34:00;;;;;;;1.23;1.08;;;23.40;57.30;;;;;;6249556;28;20048;-73
2021/09/03 03:37:02;;;;;;;1.15;0.95;;;23.40;57.30;;;;;;6251078;28;20109;-73
2021/09/03 03:40:04;;;;;;;1.50;1.35;;;23.40;57.30;;;;;;6251753;28;20025;-73
2021/09/03 03:43:04;;;;;;;4.90;1.25;;;23.40;57.30;;;;;;6252223;28;20049;-73
2021/09/03 03:46:05;;;;;;;1.58;1.20;;;23.40;57.30;;;;;;6251669;28;20097;-74
2021/09/03 03:49:05;;;;;;;1.50;1.02;;;23.40;57.40;;;;;;6251879;28;20052;-73
2021/09/03 03:52:06;;;;;;;1.15;1.05;;;23.40;57.30;;;;;;6252506;28;20025;-73
2021/09/03 03:55:07;;;;;;;1.50;1.20;;;23.40;57.30;;;;;;6245903;28;20111;-72
2021/09/03 03:58:08;;;;;;;1.15;1.05;;;23.40;57.30;;;;;;6239303;28;20514;-72
2021/09/03 04:01:08;;;;;;;1.55;1.30;;;23.40;57.30;;;;;;6241141;28;20480;-72
2021/09/03 04:04:09;;;;;;;1.73;1.20;;;23.40;57.30;;;;;;6244708;28;20080;-71
2021/09/03 04:07:09;;;;;;;1.38;1.25;;;23.40;57.30;;;;;;6246651;28;20065;-72
2021/09/03 04:10:10;;;;;;;1.08;0.93;;;23.40;57.30;;;;;;6247853;28;20025;-73
2021/09/03 04:13:11;;;;;;;1.20;1.10;;;23.40;57.30;;;;;;6242891;28;20030;-72
2021/09/03 04:16:11;;;;;;;2.13;1.13;;;23.40;57.30;;;;;;6223193;28;20030;-71
2021/09/03 04:19:13;;;;;;;1.63;1.30;;;23.40;57.30;;;;;;6245485;28;20159;-73
2021/09/03 04:22:13;;;;;;;1.40;1.10;;;23.40;57.30;;;;;;6244597;28;20029;-71
2021/09/03 04:25:14;;;;;;;1.20;1.02;;;23.40;57.30;;;;;;6245619;28;20467;-71
2021/09/03 04:28:15;;;;;;;1.48;1.20;;;23.40;57.30;;;;;;6251433;28;20029;-73
2021/09/03 04:31:15;;;;;;;1.52;1.27;;;23.40;57.30;;;;;;6246636;28;20420;-73
2021/09/03 04:34:16;;;;;;;1.40;1.20;;;23.40;57.30;;;;;;6246329;28;20259;-73
2021/09/03 04:37:16;;;;;;;1.83;1.20;;;23.40;57.30;;;;;;6244262;28;20028;-73
2021/09/03 04:40:18;;;;;;;1.38;1.10;;;23.40;57.30;;;;;;6245285;28;20117;-72
2021/09/03 04:43:19;;;;;;;1.13;1.00;;;23.40;57.30;;;;;;6235711;28;20045;-72
2021/09/03 04:46:20;;;;;;;1.27;1.02;;;23.40;57.30;;;;;;6220474;28;20022;-73
2021/09/03 04:49:20;;;;;;;1.23;1.10;;;23.40;57.30;;;;;;6237073;28;20276;-72
2021/09/03 04:52:21;;;;;;;0.98;0.88;;;23.40;57.30;;;;;;6244322;28;20030;-73
2021/09/03 04:55:21;;;;;;;4.85;1.25;;;23.40;57.20;;;;;;6243384;28;20433;-73
2021/09/03 04:58:23;;;;;;;1.90;1.45;;;23.40;57.10;;;;;;6246917;28;20053;-73
2021/09/03 05:01:23;;;;;;;6.50;1.80;;;23.40;56.50;;;;;;6236352;28;20053;-73
2021/09/03 05:04:24;;;;;;;3.92;1.60;;;23.30;56.90;;;;;;6249744;28;20667;-73
2021/09/03 05:07:24;;;;;;;4.80;2.70;;;23.30;56.20;;;;;;6243380;28;20110;-73
2021/09/03 05:10:25;;;;;;;4.85;2.47;;;23.30;56.10;;;;;;6244360;28;20026;-74
2021/09/03 05:13:25;;;;;;;5.72;2.80;;;23.30;56.60;;;;;;6242252;28;20026;-74
2021/09/03 05:16:26;;;;;;;9.20;3.67;;;23.30;56.60;;;;;;6239625;28;20124;-72
2021/09/03 05:19:27;;;;;;;4.35;2.70;;;23.30;56.40;;;;;;6242159;28;20021;-72
2021/09/03 05:22:27;;;;;;;6.03;3.30;;;23.30;56.20;;;;;;6241082;28;20022;-71
2021/09/03 05:25:29;;;;;;;9.38;3.90;;;23.30;56.10;;;;;;6242818;28;20083;-72
2021/09/03 05:28:30;;;;;;;7.70;4.03;;;23.30;55.90;;;;;;6241169;28;20030;-72
2021/09/03 05:31:30;;;;;;;10.40;4.15;;;23.30;54.20;;;;;;6242797;28;20403;-72
2021/09/03 05:34:31;;;;;;;10.77;4.68;;;23.30;54.60;;;;;;6241460;28;20022;-72
2021/09/03 05:37:31;;;;;;;10.93;5.07;;;23.30;55.30;;;;;;6241512;28;20359;-71
2021/09/03 05:40:35;;;;;;;9.95;5.65;;;23.30;55.30;;;;;;6242774;28;20022;-70
2021/09/03 05:43:36;;;;;;;11.68;6.25;;;23.20;55.30;;;;;;6233136;28;20018;-70
2021/09/03 05:46:36;;;;;;;12.02;5.65;;;23.20;54.30;;;;;;6238582;28;20028;-70
2021/09/03 05:49:37;;;;;;;14.60;6.25;;;23.20;53.70;;;;;;6238302;28;20083;-70
2021/09/03 05:52:47;;;;;;;13.02;5.05;;;23.30;54.10;;;;;;6243953;28;20033;-70
2021/09/03 05:55:48;;;;;;;10.18;5.82;;;23.30;54.30;;;;;;6241687;28;20021;-70
2021/09/03 05:58:48;;;;;;;12.93;5.90;;;23.30;54.40;;;;;;6243161;28;20056;-70
2021/09/03 06:01:49;;;;;;;12.80;5.00;;;23.30;54.30;;;;;;6238869;28;20030;-70
2021/09/03 06:04:50;;;;;;;12.98;5.75;;;23.30;54.40;;;;;;6235880;28;20032;-70
2021/09/03 06:07:50;;;;;;;10.25;5.18;;;23.30;54.50;;;;;;6245373;28;20083;-70
2021/09/03 06:10:51;;;;;;;9.35;5.20;;;23.30;54.50;;;;;;6245115;28;20029;-70
2021/09/03 06:13:53;;;;;;;10.38;5.10;;;23.30;54.60;;;;;;6245850;28;20028;-70
2021/09/03 06:16:54;;;;;;;7.55;4.63;;;23.30;54.70;;;;;;6245499;28;20398;-70
2021/09/03 06:19:54;;;;;;;10.45;4.65;;;23.30;54.70;;;;;;6244992;28;20033;-70
2021/09/03 06:22:55;;;;;;;5.45;4.10;;;23.30;54.80;;;;;;6244089;28;20124;-70
2021/09/03 06:25:56;;;;;;;6.63;4.22;;;23.30;54.90;;;;;;6243173;28;20017;-70
2021/09/03 06:28:56;;;;;;;7.07;4.25;;;23.30;54.90;;;;;;6245033;28;20039;-70
2021/09/03 06:31:57;;;;;;;5.82;4.35;;;23.30;55.00;;;;;;6242819;28;20026;-70
2021/09/03 06:35:00;;;;;;;8.35;4.63;;;23.30;54.90;;;;;;6244057;28;20419;-70
2021/09/03 06:38:01;;;;;;;6.93;4.13;;;23.30;55.10;;;;;;6244569;28;20061;-70
2021/09/03 06:41:01;;;;;;;5.75;3.95;;;23.30;55.10;;;;;;6244576;28;20032;-70
2021/09/03 06:44:02;;;;;;;9.43;4.60;;;23.30;55.10;;;;;;6244423;28;20033;-70
2021/09/03 06:47:04;;;;;;;5.28;3.78;;;23.30;55.10;;;;;;6244769;28;20517;-70
2021/09/03 06:50:06;;;;;;;6.07;4.32;;;23.30;55.10;;;;;;6244450;28;20148;-70
2021/09/03 06:53:06;;;;;;;5.75;4.10;;;23.30;55.20;;;;;;6220388;28;20060;-70
2021/09/03 06:56:07;;;;;;;8.35;4.03;;;23.30;55.20;;;;;;6225936;28;20028;-70
2021/09/03 06:59:07;;;;;;;4.65;3.78;;;23.30;55.20;;;;;;6243711;28;20028;-70
2021/09/03 07:02:08;;;;;;;4.57;3.53;;;23.30;55.30;;;;;;6244102;28;20398;-71
2021/09/03 07:05:11;;;;;;;5.15;3.60;;;23.30;55.20;;;;;;6244337;28;20033;-70
2021/09/03 07:08:12;;;;;;;4.40;3.50;;;23.30;55.40;;;;;;6242628;28;20482;-70
2021/09/03 07:11:12;;;;;;;5.38;3.45;;;23.30;55.30;;;;;;6244326;28;20091;-70
2021/09/03 07:14:13;;;;;;;5.70;3.75;;;23.30;55.40;;;;;;6243160;28;20032;-70
2021/09/03 07:17:17;;;;;;;5.05;3.47;;;23.30;55.40;;;;;;6232047;28;20088;-70
2021/09/03 07:20:17;;;;;;;6.90;3.53;;;23.30;55.40;;;;;;6220762;28;20026;-72
2021/09/03 07:23:18;;;;;;;5.35;3.28;;;23.30;55.50;;;;;;6239817;28;20034;-72
2021/09/03 07:26:19;;;;;;;5.30;3.50;;;23.30;55.50;;;;;;6244639;28;20026;-72
2021/09/03 07:29:19;;;;;;;4.00;3.22;;;23.30;55.50;;;;;;6244050;28;20029;-72
2021/09/03 07:32:20;;;;;;;5.78;3.53;;;23.30;55.50;;;;;;6244004;28;20018;-72
2021/09/03 07:35:20;;;;;;;4.95;3.75;;;23.30;55.40;;;;;;6243759;28;20022;-72
2021/09/03 07:38:21;;;;;;;4.15;3.10;;;23.30;55.60;;;;;;6241910;28;20408;-73
2021/09/03 07:41:23;;;;;;;6.43;3.45;;;23.30;55.50;;;;;;6242447;28;20029;-72
2021/09/03 07:44:25;;;;;;;5.47;3.35;;;23.30;55.40;;;;;;6243925;28;20030;-72
2021/09/03 07:47:27;;;;;;;4.57;3.50;;;23.30;55.50;;;;;;6242398;28;20030;-72
2021/09/03 07:50:28;;;;;;;5.63;3.83;;;23.30;55.60;;;;;;6244178;28;20026;-72
2021/09/03 07:53:28;;;;;;;4.32;3.28;;;23.30;55.60;;;;;;6243878;28;20030;-72
2021/09/03 07:56:29;;;;;;;4.13;3.10;;;23.30;55.60;;;;;;6243803;28;20045;-72
2021/09/03 07:59:30;;;;;;;5.55;3.22;;;23.30;55.70;;;;;;6243739;28;20030;-72
2021/09/03 08:02:31;;;;;;;6.70;3.60;;;23.30;55.70;;;;;;6242302;28;20025;-72
2021/09/03 08:05:31;;;;;;;4.18;3.03;;;23.30;55.60;;;;;;6243900;28;20029;-72
2021/09/03 08:08:32;;;;;;;5.53;3.10;;;23.30;55.60;;;;;;6243229;28;20153;-72
2021/09/03 08:11:33;;;;;;;4.57;3.13;;;23.30;55.60;;;;;;6244586;28;20069;-72
2021/09/03 08:14:36;;;;;;;4.78;3.40;;;23.30;55.70;;;;;;6244531;28;20156;-72
2021/09/03 08:17:36;;;;;;;5.53;3.47;;;23.30;55.60;;;;;;6242661;28;20053;-72
2021/09/03 08:20:37;;;;;;;5.00;3.20;;;23.30;55.60;;;;;;6242424;28;20025;-72
2021/09/03 08:23:38;;;;;;;4.28;3.30;;;23.30;55.70;;;;;;6242118;28;20407;-72
2021/09/03 08:26:38;;;;;;;7.72;3.47;;;23.30;55.70;;;;;;6242769;28;20471;-72
2021/09/03 08:29:39;;;;;;;4.43;3.00;;;23.30;55.80;;;;;;6233725;28;20108;-72
2021/09/03 08:32:39;;;;;;;5.03;3.20;;;23.30;55.80;;;;;;6219021;28;20144;-72
2021/09/03 08:35:40;;;;;;;5.07;3.03;;;23.30;55.80;;;;;;6243311;28;20604;-73
2021/09/03 08:38:41;;;;;;;4.00;3.05;;;23.30;55.80;;;;;;6241422;28;20030;-72
2021/09/03 08:41:42;;;;;;;4.25;3.05;;;23.30;55.80;;;;;;6243363;28;20406;-72
2021/09/03 08:44:44;;;;;;;4.50;3.13;;;23.30;55.80;;;;;;6243382;28;20524;-72
2021/09/03 08:47:45;;;;;;;4.22;3.03;;;23.30;56.50;;;;;;6243522;28;20493;-72
2021/09/03 08:50:49;;;;;;;4.55;3.28;;;23.30;55.90;;;;;;6247105;28;20084;-72
2021/09/03 08:53:50;;;;;;;4.30;3.15;;;23.30;55.70;;;;;;6246781;28;20076;-72
2021/09/03 08:56:50;;;;;;;5.13;2.90;;;23.30;55.90;;;;;;6245931;28;20052;-72
2021/09/03 08:59:51;;;;;;;3.08;2.53;;;23.30;55.80;;;;;;6245757;28;20029;-72
2021/09/03 09:03:15;;;;;;;3.55;2.75;;;23.30;55.90;;;;;;6247324;28;20030;-72
2021/09/03 09:06:22;;;;;;;3.60;2.63;;;23.30;55.80;;;;;;6247049;28;20444;-72
2021/09/03 09:09:33;;;;;;;3.25;2.75;;;23.30;55.80;;;;;;6245575;28;20132;-72
2021/09/03 09:12:33;;;;;;;4.03;2.65;;;23.30;55.90;;;;;;6245706;28;20036;-72
2021/09/03 09:15:34;;;;;;;3.85;2.90;;;23.30;55.80;;;;;;6245923;28;20364;-72
2021/09/03 09:18:49;;;;;;;4.88;3.10;;;23.30;55.90;;;;;;6245086;28;20029;-72
2021/09/03 09:21:59;;;;;;;3.42;2.75;;;23.30;56.00;;;;;;6247135;28;20072;-72
2021/09/03 09:25:22;;;;;;;4.28;2.90;;;23.40;56.70;;;;;;6245205;28;20057;-72
2021/09/03 09:28:22;;;;;;;4.18;3.08;;;23.30;55.90;;;;;;6245434;28;20502;-73
2021/09/03 09:31:28;;;;;;;3.65;2.72;;;23.30;55.90;;;;;;6237532;28;20076;-72
2021/09/03 09:34:34;;;;;;;3.15;2.72;;;23.30;55.80;;;;;;6228581;28;20029;-73
2021/09/03 09:37:35;;;;;;;3.78;3.03;;;23.30;55.90;;;;;;6246595;28;20116;-72
2021/09/03 09:40:44;;;;;;;3.85;2.60;;;23.30;56.00;;;;;;6244799;28;20036;-72
2021/09/03 09:43:45;;;;;;;3.70;2.88;;;23.30;55.90;;;;;;6245035;28;20093;-72
2021/09/03 09:46:45;;;;;;;3.88;2.60;;;23.30;55.90;;;;;;6245074;28;20031;-72
2021/09/03 09:49:46;;;;;;;3.92;3.10;;;23.30;56.60;;;;;;6246226;28;20080;-73
2021/09/03 09:52:46;;;;;;;6.00;3.38;;;23.30;56.00;;;;;;6246117;28;20032;-72
2021/09/03 09:55:47;;;;;;;3.78;2.80;;;23.30;56.00;;;;;;6244653;28;20021;-72
2021/09/03 09:58:53;;;;;;;3.55;2.63;;;23.30;55.90;;;;;;6245725;28;20049;-72
2021/09/03 10:01:56;;;;;;;4.45;2.90;;;23.30;56.00;;;;;;6244838;28;20029;-72
2021/09/03 10:04:59;;;;;;;4.65;2.80;;;23.30;56.00;;;;;;6244736;28;20029;-72
2021/09/03 10:08:00;;;;;;;3.45;2.33;;;23.30;56.00;;;;;;6244175;28;20032;-72
2021/09/03 10:11:02;;;;;;;3.42;2.50;;;23.30;56.00;;;;;;6244431;28;20483;-72
2021/09/03 10:14:04;;;;;;;3.83;2.83;;;23.30;56.00;;;;;;6245327;28;20024;-72
2021/09/03 10:17:06;;;;;;;3.90;3.10;;;23.30;56.10;;;;;;6244264;28;20048;-72
2021/09/03 10:20:09;;;;;;;3.50;2.60;;;23.40;56.10;;;;;;6245251;28;20033;-72
2021/09/03 10:23:10;;;;;;;4.03;2.72;;;23.30;56.00;;;;;;6246677;28;20029;-72
2021/09/03 10:26:14;;;;;;;4.93;3.25;;;23.30;56.10;;;;;;6253373;28;20025;-73
2021/09/03 10:29:37;;;;;;;3.72;2.83;;;23.30;56.10;;;;;;6243426;28;20445;-72
2021/09/03 10:32:40;;;;;;;4.00;2.70;;;23.30;56.10;;;;;;6275085;28;20502;-72
2021/09/03 10:35:49;;;;;;;3.78;2.60;;;23.40;56.10;;;;;;6273500;28;20059;-73
2021/09/03 10:39:24;;;;;;;3.42;2.63;;;23.30;56.10;;;;;;6259474;28;20029;-73
2021/09/03 10:42:53;;;;;;;4.68;2.70;;;23.40;56.20;;;;;;6257116;28;20103;-72
2021/09/03 10:46:00;;;;;;;3.72;2.83;;;23.30;56.10;;;;;;6271574;28;20033;-73
2021/09/03 10:49:01;;;;;;;5.85;2.80;;;23.40;56.20;;;;;;6276146;28;20095;-72
2021/09/03 10:52:09;;;;;;;4.13;2.60;;;23.30;56.20;;;;;;6275966;28;20037;-73
2021/09/03 10:55:10;;;;;;;2.85;2.33;;;23.30;56.10;;;;;;6275879;28;20059;-73
2021/09/03 10:58:27;;;;;;;3.70;2.78;;;23.30;56.20;;;;;;6275878;28;20053;-73
2021/09/03 11:01:33;;;;;;;3.95;2.92;;;23.30;56.10;;;;;;6257579;28;20029;-73
2021/09/03 11:04:45;;;;;;;4.72;2.55;;;23.40;56.20;;;;;;6257534;28;20492;-72
2021/09/03 11:07:47;;;;;;;3.60;2.40;;;23.30;56.20;;;;;;6275163;28;20017;-72
2021/09/03 11:10:47;;;;;;;3.00;2.40;;;23.30;56.20;;;;;;6274696;28;20161;-72
2021/09/03 11:13:49;;;;;;;3.15;2.63;;;23.30;56.20;;;;;;6258248;28;20085;-72
2021/09/03 11:17:06;;;;;;;4.28;2.75;;;23.40;56.30;;;;;;6274455;28;20029;-73
2021/09/03 11:20:08;;;;;;;3.40;2.58;;;23.40;56.30;;;;;;6251313;28;20094;-72
2021/09/03 11:23:09;;;;;;;2.95;2.65;;;23.30;56.20;;;;;;6254037;28;20033;-73
2021/09/03 11:26:15;;;;;;;3.90;2.78;;;23.30;56.20;;;;;;6253626;28;20036;-73
2021/09/03 11:29:25;;;;;;;2.85;2.20;;;23.30;56.20;;;;;;6251559;28;20025;-71
2021/09/03 11:32:36;;;;;;;3.65;2.35;;;23.30;56.20;;;;;;6245778;28;20422;-71
2021/09/03 11:35:36;;;;;;;2.78;2.33;;;23.30;56.10;;;;;;6245595;28;20067;-70
2021/09/03 11:38:37;;;;;;;3.70;2.50;;;23.30;56.20;;;;;;6244875;28;20367;-71
2021/09/03 11:41:47;;;;;;;4.10;2.17;;;23.30;56.20;;;;;;6244373;28;20038;-71
2021/09/03 11:44:55;;;;;;;6.85;2.60;;;23.30;56.20;;;;;;6245941;28;20029;-71
2021/09/03 11:47:58;;;;;;;3.42;2.50;;;23.30;56.20;;;;;;6245532;28;20018;-71
2021/09/03 11:50:59;;;;;;;2.70;2.30;;;23.40;56.30;;;;;;6245735;28;20430;-71
2021/09/03 11:54:01;;;;;;;2.88;2.22;;;23.30;56.20;;;;;;6244261;28;20022;-70
2021/09/03 11:57:01;;;;;;;3.47;2.70;;;23.30;56.20;;;;;;6240672;28;20573;-71
2021/09/03 12:00:02;;;;;;;3.92;2.40;;;23.40;56.30;;;;;;6221006;28;20030;-71
2021/09/03 12:03:11;;;;;;;2.58;2.38;;;23.40;56.30;;;;;;6220084;28;20026;-70
2021/09/03 12:06:15;;;;;;;3.50;2.50;;;23.30;56.20;;;;;;6221498;28;20033;-70
2021/09/03 12:09:33;;;;;;;3.38;2.33;;;23.30;56.30;;;;;;6240859;28;20029;-71
2021/09/03 12:12:34;;;;;;;2.88;2.25;;;23.40;56.40;;;;;;6245357;28;20072;-71
2021/09/03 12:15:35;;;;;;;2.85;2.13;;;23.30;56.40;;;;;;6245064;28;20021;-71
2021/09/03 12:18:37;;;;;;;2.72;2.30;;;23.30;56.40;;;;;;6244443;28;20032;-70
2021/09/03 12:21:41;;;;;;;3.03;2.22;;;23.30;56.40;;;;;;6245368;28;20109;-71
2021/09/03 12:24:46;;;;;;;4.28;2.10;;;23.30;56.40;;;;;;6248500;28;20075;-70
2021/09/03 12:28:07;;;;;;;2.67;1.80;;;23.40;56.50;;;;;;6250134;28;20037;-70
2021/09/03 12:31:13;;;;;;;2.92;2.17;;;23.40;56.50;;;;;;6250378;28;20124;-71
2021/09/03 12:34:15;;;;;;;2.92;2.00;;;23.30;56.40;;;;;;6245574;28;20060;-71
2021/09/03 12:37:16;;;;;;;2.22;1.90;;;23.40;56.50;;;;;;6247770;28;20074;-71
2021/09/03 12:40:20;;;;;;;2.70;2.30;;;23.40;56.60;;;;;;6247690;28;20029;-71
2021/09/03 12:43:29;;;;;;;2.72;2.30;;;23.30;56.50;;;;;;6247210;28;20367;-71
2021/09/03 12:46:38;;;;;;;2.10;1.90;;;23.40;56.60;;;;;;6247602;28;20032;-71
2021/09/03 12:49:40;;;;;;;2.75;1.92;;;23.40;56.60;;;;;;6246830;28;20061;-71
2021/09/03 12:52:42;;;;;;;2.35;2.08;;;23.40;56.60;;;;;;6245800;28;20021;-70
2021/09/03 12:55:43;;;;;;;3.03;2.00;;;23.40;56.60;;;;;;6246006;28;20022;-71
2021/09/03 12:58:44;;;;;;;3.25;2.10;;;23.30;56.60;;;;;;6247716;28;20513;-70
2021/09/03 13:01:46;;;;;;;2.95;2.13;;;23.40;56.70;;;;;;6244414;28;20064;-71
2021/09/03 13:04:46;;;;;;;2.33;1.83;;;23.40;56.70;;;;;;6245591;28;20033;-71
2021/09/03 13:07:47;;;;;;;2.15;1.90;;;23.30;56.60;;;;;;6247268;28;20545;-70
2021/09/03 13:10:48;;;;;;;2.35;1.83;;;23.40;56.70;;;;;;6245180;28;20021;-71
2021/09/03 13:13:49;;;;;;;2.33;1.90;;;23.30;56.60;;;;;;6245211;28;20029;-71
2021/09/03 13:16:50;;;;;;;2.17;1.80;;;23.40;56.70;;;;;;6247801;28;20108;-71
2021/09/03 13:19:51;;;;;;;2.58;2.10;;;23.40;56.70;;;;;;6246996;28;20028;-71
2021/09/03 13:22:52;;;;;;;2.67;1.98;;;23.40;56.80;;;;;;6246831;28;20028;-71
2021/09/03 13:25:53;;;;;;;2.15;1.85;;;23.40;56.80;;;;;;6246252;28;20029;-71
2021/09/03 13:28:56;;;;;;;2.30;1.90;;;23.40;56.80;;;;;;6245344;28;20028;-72
2021/09/03 13:31:56;;;;;;;2.85;1.85;;;23.40;56.80;;;;;;6244960;28;20321;-71
2021/09/03 13:34:57;;;;;;;2.00;1.52;;;23.30;56.70;;;;;;6245386;28;20053;-71
2021/09/03 13:37:57;;;;;;;1.98;1.67;;;23.40;56.90;;;;;;6246277;28;20067;-70
2021/09/03 13:40:58;;;;;;;2.60;1.83;;;23.40;56.80;;;;;;6246369;28;20029;-71
2021/09/03 13:43:59;;;;;;;1.50;1.40;;;23.40;56.80;;;;;;6246432;28;20028;-71
2021/09/03 13:47:00;;;;;;;2.15;1.52;;;23.40;56.90;;;;;;6247080;28;20108;-71
2021/09/03 13:50:00;;;;;;;2.17;1.98;;;23.40;56.90;;;;;;6247628;28;20036;-71
2021/09/03 13:53:01;;;;;;;2.08;1.70;;;23.40;56.90;;;;;;6247277;28;20490;-72
2021/09/03 13:56:03;;;;;;;4.00;2.13;;;23.40;56.90;;;;;;6246477;28;20017;-72
2021/09/03 13:59:06;;;;;;;2.10;1.77;;;23.40;56.90;;;;;;6246518;28;20390;-72
2021/09/03 14:02:07;;;;;;;2.50;1.83;;;23.40;57.00;;;;;;6245265;28;20487;-72
2021/09/03 14:05:09;;;;;;;1.92;1.60;;;23.40;57.00;;;;;;6245602;28;20029;-72
2021/09/03 14:08:11;;;;;;;2.20;2.00;;;23.40;57.00;;;;;;6247545;28;20044;-72
2021/09/03 14:11:11;;;;;;;2.45;1.80;;;23.40;56.90;;;;;;6245293;28;20442;-72
2021/09/03 14:14:13;;;;;;;2.10;1.65;;;23.40;57.00;;;;;;6238048;28;20018;-72
2021/09/03 14:17:13;;;;;;;1.98;1.73;;;23.40;57.00;;;;;;6239114;28;20028;-72
2021/09/03 14:20:18;;;;;;;2.08;1.70;;;23.40;57.00;;;;;;6245538;28;20382;-73
2021/09/03 14:23:20;;;;;;;1.83;1.60;;;23.40;57.00;;;;;;6244274;28;20036;-72
2021/09/03 14:26:20;;;;;;;2.30;1.70;;;23.40;57.00;;;;;;6243382;28;20063;-72
2021/09/03 14:29:21;;;;;;;1.88;1.58;;;23.40;57.00;;;;;;6244418;28;20025;-72
2021/09/03 14:32:21;;;;;;;2.00;1.65;;;23.40;57.00;;;;;;6244743;28;20033;-72
2021/09/03 14:35:22;;;;;;;2.13;1.92;;;23.40;57.00;;;;;;6245685;28;20052;-70
2021/09/03 14:38:22;;;;;;;3.00;2.00;;;23.40;57.10;;;;;;6232120;28;20520;-72
2021/09/03 14:41:23;;;;;;;1.75;1.45;;;23.40;57.00;;;;;;6238879;28;20107;-70
2021/09/03 14:44:24;;;;;;;2.40;1.83;;;23.40;57.00;;;;;;6242416;28;20030;-70
2021/09/03 14:47:26;;;;;;;1.90;1.40;;;23.40;57.10;;;;;;6244030;28;20029;-72
2021/09/03 14:50:28;;;;;;;1.65;1.52;;;23.40;57.00;;;;;;6237189;28;20080;-71
2021/09/03 14:53:32;;;;;;;1.75;1.45;;;23.40;57.10;;;;;;6240920;28;20486;-74
2021/09/03 14:56:32;;;;;;;7.60;2.55;;;23.40;57.10;;;;;;6242575;28;20033;-69
2021/09/03 14:59:33;;;;;;;13.77;4.10;;;23.40;56.00;;;;;;6241392;28;20036;-69
2021/09/03 15:02:34;;;;;;;5.82;2.70;;;23.40;54.40;;;;;;6240579;28;20482;-68
2021/09/03 15:05:36;;;;;;;10.48;4.70;;;23.40;53.40;;;;;;6241811;28;20032;-68
2021/09/03 15:08:37;;;;;;;8.80;4.20;;;23.40;53.40;;;;;;6242622;28;20028;-69
2021/09/03 15:11:38;;;;;;;7.65;4.75;;;23.40;52.90;;;;;;6235661;28;20386;-69
2021/09/03 15:14:38;;;;;;;7.28;5.03;;;23.40;52.40;;;;;;6230027;28;20022;-67
2021/09/03 15:17:39;;;;;;;8.88;5.70;;;23.40;52.30;;;;;;6218563;28;20026;-69
2021/09/03 15:20:41;;;;;;;7.38;4.82;;;23.40;52.00;;;;;;6219152;28;20021;-69
2021/09/03 15:23:42;;;;;;;6.90;4.75;;;23.40;52.50;;;;;;6219984;28;20052;-68
2021/09/03 15:26:43;;;;;;;7.93;4.95;;;23.30;53.10;;;;;;6219677;28;20030;-68
2021/09/03 15:29:43;;;;;;;9.68;4.95;;;23.30;53.40;;;;;;6219494;28;20559;-69
2021/09/03 15:32:45;;;;;;;8.63;4.82;;;23.40;53.40;;;;;;6219610;28;20064;-69
2021/09/03 15:35:45;;;;;;;9.40;5.45;;;23.30;53.90;;;;;;6221508;28;20395;-68
2021/09/03 15:38:46;;;;;;;9.23;5.18;;;23.30;53.70;;;;;;6244085;28;20021;-69
2021/09/03 15:41:46;;;;;;;9.73;5.20;;;23.30;53.50;;;;;;6243765;28;20030;-69
2021/09/03 15:44:47;;;;;;;10.85;5.15;;;23.30;53.30;;;;;;6244012;28;20061;-68
2021/09/03 15:47:49;;;;;;;9.68;5.50;;;23.30;53.30;;;;;;6244039;28;20065;-67